Monterey, VA

9:48 AM EDT on September 23, 2014 (GMT -0400)
KVAMONTE3 | Change Station
CLOSE
Current Station
Personal Weather Station
Location: Monterey, VA
Elevation: 2924 ft
Nearby Weather Stations

Elev 2924 ft 38.41 °N, 79.58 °W | Updated 2 minutes ago

Fog
Fog
46.3 °F
Feels Like 42 °F
N
8.0
Wind Variable Wind from NNE
Gusts 9.0 mph

Today
High -- | Low -- °F
--% Chance of Precip.
Yesterday
High -- | Low -- °F
Precip. -- in
7:07 AM 7:13 PM
Waning Crescent, 0% visible
Pressure 30.37 in
Visibility 10.0 miles
Clouds Clear
Windchill 42 °F
Dew Point 43 °F
Humidity 89%
Rainfall 0.00 in
Snow Depth Not available.
UV 3 out of 12
Pollen 3.10 out of 12
Air Quality Not available.
Flu Activity Not available.
METAR KHSP 231330Z AUTO 11008KT 080V140 10SM CLR 07/M01 A3037 RMK AO2 T00671010

More Conditions Fewer Conditions

Pressure 30.37 in
Visibility 10.0 miles
Clouds Clear
Windchill 42 °F
Dew Point 43 °F
Humidity 89%
Rainfall 0.00 in
Snow Depth Not available.
UV 3 out of 12
Pollen 3.10 out of 12
Air Quality Not available.
Flu Activity Not available.
METAR KHSP 231330Z AUTO 11008KT 080V140 10SM CLR 07/M01 A3037 RMK AO2 T00671010

More Conditions Fewer Conditions

10-Day Weather Forecast

Almanac

Astronomy

Sep. 23, 2014 Rise Set
Actual Time 7:07 AM EDT 7:13 PM EDT
Civil Twilight 6:40 AM EDT 7:40 PM EDT
Nautical Twilight 6:09 AM EDT 8:11 PM EDT
Astronomical Twilight 5:38 AM EDT 8:42 PM EDT
Moon 6:29 AM EDT 6:52 PM EDT
Length of Visible Light 12h 59m
Length of Day
12h 06m
Tomorrow will be 2m 28s shorter.
Waning Crescent, 0% of the Moon is Illuminated
Today
Waning Crescent
Sep 24
New
Oct 1
First Quarter
Oct 8
Full
Oct 15
Last Quarter

Today's Extremes

State Highs State Lows

Community

WunderPhotos

Upload Photos

1,755,669 photos uploaded!

WunderBlogs® & News

Nearby

Snow Depth

Station Depth Elevation
No new snow has been reported.

Earthquake Activity

City Distance Mag. Time & Date
No recent earthquake activity has been reported nearby.
Minimum magnitude displayed is 2.5.

Coastal Water Temperatures

Place Temperature
No Stations Reporting

Nearby Weather Stations